createdAt,value
2023-05-05T00:01:43.698Z,11.98
2023-05-05T00:04:11.028Z,11.99
2023-05-05T00:06:38.127Z,11.99
2023-05-05T00:09:05.201Z,11.99
2023-05-05T00:11:32.488Z,11.99
2023-05-05T00:13:59.524Z,12.06
2023-05-05T00:16:26.709Z,12.07
2023-05-05T00:18:53.905Z,12.15
2023-05-05T00:21:21.108Z,12.18
2023-05-05T00:23:48.383Z,12.15
2023-05-05T00:26:15.498Z,12.09
2023-05-05T00:28:48.831Z,12.06
2023-05-05T00:31:17.099Z,12.12
2023-05-05T00:33:44.244Z,12.14
2023-05-05T00:36:11.646Z,12.08
2023-05-05T00:38:38.972Z,12.10
2023-05-05T00:41:06.029Z,12.01
2023-05-05T00:43:33.761Z,11.94
2023-05-05T00:46:03.303Z,11.94
2023-05-05T00:48:31.466Z,11.91
2023-05-05T00:51:00.291Z,11.90
2023-05-05T00:53:28.512Z,11.83
2023-05-05T00:55:55.647Z,11.80
2023-05-05T00:58:23.366Z,11.76
2023-05-05T01:00:50.852Z,11.75
2023-05-05T01:03:19.101Z,11.77
2023-05-05T01:05:59.337Z,11.77
2023-05-05T01:08:41.429Z,11.77
2023-05-05T01:11:38.310Z,11.77
2023-05-05T01:14:19.672Z,11.80
2023-05-05T01:16:59.199Z,11.76
2023-05-05T01:19:58.517Z,11.84
2023-05-05T01:22:34.781Z,11.78
2023-05-05T01:25:41.242Z,11.72
2023-05-05T01:28:20.421Z,11.70
2023-05-05T01:31:18.226Z,11.55
2023-05-05T01:33:52.478Z,11.63
2023-05-05T01:36:29.254Z,11.56
2023-05-05T01:38:59.581Z,11.50
2023-05-05T01:41:43.838Z,11.59
2023-05-05T01:44:13.896Z,11.65
2023-05-05T01:46:41.095Z,11.60
2023-05-05T01:49:12.116Z,11.59
2023-05-05T01:51:41.117Z,11.56
2023-05-05T01:54:10.098Z,11.58
2023-05-05T01:56:40.413Z,11.55
2023-05-05T01:59:10.329Z,11.42
2023-05-05T02:01:41.982Z,11.49
2023-05-05T02:04:10.268Z,11.58
2023-05-05T02:06:40.654Z,11.53
2023-05-05T02:09:12.202Z,11.20
2023-05-05T02:11:41.006Z,11.09
2023-05-05T02:14:09.580Z,11.08
2023-05-05T02:16:39.061Z,11.02
2023-05-05T02:19:12.581Z,10.94
2023-05-05T02:21:40.661Z,10.97
2023-05-05T02:24:09.171Z,11.19
2023-05-05T02:26:40.177Z,11.00
2023-05-05T02:29:12.806Z,10.98
2023-05-05T02:31:45.662Z,10.98
2023-05-05T02:34:19.254Z,11.13
2023-05-05T02:36:48.622Z,11.19
2023-05-05T02:39:25.537Z,11.17
2023-05-05T02:41:54.445Z,11.10
2023-05-05T02:44:27.957Z,11.14
2023-05-05T02:46:56.476Z,11.34
2023-05-05T02:49:24.604Z,11.37
2023-05-05T02:51:58.314Z,11.38
2023-05-05T02:54:29.490Z,11.26
2023-05-05T02:56:58.187Z,11.27
2023-05-05T03:00:15.886Z,11.22
2023-05-05T03:03:07.212Z,11.18
2023-05-05T03:06:17.889Z,11.13
2023-05-05T03:09:14.394Z,11.28
2023-05-05T03:11:48.060Z,11.19
2023-05-05T03:14:18.770Z,11.10
2023-05-05T03:16:49.691Z,11.15
2023-05-05T03:19:19.100Z,11.01
2023-05-05T03:21:48.976Z,11.00
2023-05-05T03:24:19.182Z,11.02
2023-05-05T03:26:57.986Z,10.97
2023-05-05T03:29:31.977Z,11.00
2023-05-05T03:32:01.545Z,10.61
2023-05-05T03:34:30.150Z,10.51
2023-05-05T03:36:58.565Z,10.49
2023-05-05T03:39:26.380Z,10.58
2023-05-05T03:41:54.442Z,10.73
2023-05-05T03:44:22.790Z,10.89
2023-05-05T03:46:50.244Z,10.92
2023-05-05T03:49:18.539Z,10.88
2023-05-05T03:51:47.857Z,11.05
2023-05-05T03:54:15.591Z,11.08
2023-05-05T03:56:42.954Z,11.02
2023-05-05T03:59:11.682Z,10.88
2023-05-05T04:01:39.214Z,10.95
2023-05-05T04:04:07.024Z,10.80
2023-05-05T04:06:34.100Z,10.90
2023-05-05T04:09:01.817Z,10.89
2023-05-05T04:11:29.642Z,10.96
2023-05-05T04:13:58.082Z,10.94
2023-05-05T04:16:27.566Z,10.91
2023-05-05T04:18:56.391Z,11.30
2023-05-05T04:21:23.516Z,11.46
2023-05-05T04:23:51.157Z,11.54
2023-05-05T04:26:19.153Z,11.69
2023-05-05T04:28:47.144Z,11.62
2023-05-05T04:31:15.838Z,11.39
2023-05-05T04:33:45.361Z,11.31
2023-05-05T04:36:13.472Z,11.21
2023-05-05T04:38:41.496Z,11.12
2023-05-05T04:41:08.855Z,11.14
2023-05-05T04:43:38.418Z,11.46
2023-05-05T04:46:05.581Z,11.50
2023-05-05T04:48:37.566Z,11.74
2023-05-05T04:51:08.172Z,11.69
2023-05-05T04:53:36.897Z,11.93
2023-05-05T04:56:04.436Z,12.23
2023-05-05T04:58:32.314Z,12.07
2023-05-05T05:00:59.758Z,12.07
2023-05-05T05:03:27.593Z,12.15
2023-05-05T05:05:54.728Z,12.21
2023-05-05T05:08:22.236Z,12.11
2023-05-05T05:10:52.808Z,12.08
2023-05-05T05:13:20.256Z,12.29
2023-05-05T05:15:47.556Z,12.33
2023-05-05T05:18:15.348Z,12.47
2023-05-05T05:20:42.568Z,12.54
2023-05-05T05:23:09.735Z,12.82
2023-05-05T05:25:43.038Z,12.95
2023-05-05T05:28:11.462Z,12.93
2023-05-05T05:30:44.612Z,13.16
2023-05-05T05:33:12.484Z,13.24
2023-05-05T05:35:40.837Z,13.42
2023-05-05T05:38:09.036Z,13.41
2023-05-05T05:40:36.697Z,13.54
2023-05-05T05:43:04.479Z,13.64
2023-05-05T05:45:32.356Z,13.68
2023-05-05T05:47:59.553Z,13.65
2023-05-05T05:50:28.861Z,13.66
2023-05-05T05:52:57.278Z,13.51
2023-05-05T05:55:25.260Z,13.58
2023-05-05T05:57:53.106Z,13.81
2023-05-05T06:00:21.064Z,13.88
2023-05-05T06:02:54.897Z,14.01
2023-05-05T06:05:25.620Z,13.97
2023-05-05T06:07:52.954Z,14.21
2023-05-05T06:10:27.809Z,14.23
2023-05-05T06:13:00.781Z,14.39
2023-05-05T06:15:28.115Z,14.57
2023-05-05T06:17:55.751Z,14.55
2023-05-05T06:20:23.419Z,14.35
2023-05-05T06:22:50.809Z,14.33
2023-05-05T06:25:17.909Z,14.56
2023-05-05T06:27:45.622Z,14.85
2023-05-05T06:30:13.212Z,14.82
2023-05-05T06:32:40.416Z,15.00
2023-05-05T06:35:08.080Z,15.15
2023-05-05T06:37:35.199Z,15.30
2023-05-05T06:40:02.280Z,15.33
2023-05-05T06:42:31.137Z,15.37
2023-05-05T06:44:59.268Z,15.57
2023-05-05T06:47:26.607Z,15.54
2023-05-05T06:49:54.332Z,15.74
2023-05-05T06:52:23.200Z,15.60
2023-05-05T06:54:50.247Z,15.69
2023-05-05T06:57:17.918Z,15.69
2023-05-05T06:59:45.200Z,15.70
2023-05-05T07:02:12.795Z,15.91
2023-05-05T07:04:39.847Z,15.97
2023-05-05T07:07:07.091Z,15.85
2023-05-05T07:09:34.138Z,15.90
2023-05-05T07:12:01.246Z,15.99
2023-05-05T07:14:28.423Z,16.17
2023-05-05T07:16:55.944Z,16.22
2023-05-05T07:19:23.827Z,16.24
2023-05-05T07:21:52.235Z,16.18
2023-05-05T07:24:19.325Z,16.29
2023-05-05T07:26:46.534Z,16.41
2023-05-05T07:29:13.736Z,16.45
2023-05-05T07:31:41.023Z,16.60
2023-05-05T07:34:08.238Z,16.90
2023-05-05T07:36:35.581Z,17.09
2023-05-05T07:39:02.708Z,17.15
2023-05-05T07:41:29.811Z,17.04
2023-05-05T07:43:57.605Z,16.78
2023-05-05T07:46:24.775Z,16.83
2023-05-05T07:48:52.162Z,17.18
2023-05-05T07:51:19.431Z,17.14
2023-05-05T07:53:46.970Z,17.19
2023-05-05T07:56:14.086Z,17.33
2023-05-05T07:58:43.666Z,17.61
2023-05-05T08:01:11.650Z,17.76
2023-05-05T08:03:39.181Z,17.72
2023-05-05T08:06:12.094Z,17.92
2023-05-05T08:08:39.534Z,17.86
2023-05-05T08:11:07.123Z,17.96
2023-05-05T08:13:35.237Z,18.20
2023-05-05T08:16:02.723Z,18.39
2023-05-05T08:18:30.244Z,18.45
2023-05-05T08:20:58.125Z,18.12
2023-05-05T08:23:25.501Z,18.08
2023-05-05T08:25:52.683Z,18.18
2023-05-05T08:28:20.338Z,18.31
2023-05-05T08:30:47.443Z,18.67
2023-05-05T08:33:16.005Z,18.94
2023-05-05T08:35:43.931Z,18.87
2023-05-05T08:38:12.369Z,19.23
2023-05-05T08:40:41.521Z,19.51
2023-05-05T08:43:08.891Z,19.59
2023-05-05T08:45:37.101Z,19.33
2023-05-05T08:48:06.055Z,19.13
2023-05-05T08:50:33.456Z,19.51
2023-05-05T08:53:10.902Z,19.83
2023-05-05T08:55:56.556Z,20.06
2023-05-05T08:58:25.240Z,20.58
2023-05-05T09:00:54.124Z,20.77
2023-05-05T09:03:21.851Z,20.90
2023-05-05T09:05:49.389Z,21.27
2023-05-05T09:08:17.639Z,21.51
2023-05-05T09:10:45.074Z,21.45
2023-05-05T09:13:12.370Z,21.55
2023-05-05T09:15:40.338Z,21.68
2023-05-05T09:18:12.526Z,21.27
2023-05-05T09:20:40.327Z,20.90
2023-05-05T09:23:10.052Z,20.49
2023-05-05T09:25:37.771Z,20.59
2023-05-05T09:28:12.895Z,20.71
2023-05-05T09:30:41.697Z,21.09
2023-05-05T09:33:09.295Z,20.96
2023-05-05T09:35:56.015Z,20.65
2023-05-05T09:38:25.353Z,20.43
2023-05-05T09:40:54.018Z,20.53
2023-05-05T09:43:23.443Z,20.76
2023-05-05T09:45:51.382Z,20.53
2023-05-05T09:48:29.456Z,20.96
2023-05-05T09:50:58.025Z,21.04
2023-05-05T09:53:26.964Z,21.13
2023-05-05T09:55:54.497Z,20.98
2023-05-05T09:58:24.070Z,21.22
2023-05-05T10:00:51.564Z,20.80
2023-05-05T10:03:19.561Z,20.73
2023-05-05T10:05:57.653Z,20.78
2023-05-05T10:08:31.684Z,20.60
2023-05-05T10:11:03.204Z,20.84
2023-05-05T10:13:30.555Z,21.26
2023-05-05T10:15:58.199Z,21.60
2023-05-05T10:18:31.358Z,21.16
2023-05-05T10:21:00.434Z,20.59
2023-05-05T10:23:49.828Z,20.51
2023-05-05T10:26:20.195Z,20.72
2023-05-05T10:28:56.854Z,20.80
2023-05-05T10:31:39.644Z,20.80
2023-05-05T10:34:10.446Z,20.76
2023-05-05T10:36:39.181Z,20.53
2023-05-05T10:39:11.111Z,20.33
2023-05-05T10:41:39.154Z,20.53
2023-05-05T10:44:07.671Z,20.44
2023-05-05T10:46:35.140Z,20.65
2023-05-05T10:49:18.598Z,20.91
2023-05-05T10:52:06.326Z,21.49
2023-05-05T10:54:43.608Z,21.90
2023-05-05T10:57:12.364Z,21.77
2023-05-05T10:59:40.612Z,21.33
2023-05-05T11:02:28.542Z,21.14
2023-05-05T11:05:18.520Z,21.26
2023-05-05T11:07:47.086Z,21.35
2023-05-05T11:10:16.054Z,21.47
2023-05-05T11:13:03.542Z,21.86
2023-05-05T11:15:30.736Z,21.64
2023-05-05T11:18:03.921Z,21.76
2023-05-05T11:20:36.151Z,22.01
2023-05-05T11:23:03.398Z,21.45
2023-05-05T11:25:37.956Z,20.65
2023-05-05T11:28:09.690Z,20.97
2023-05-05T11:30:58.064Z,20.67
2023-05-05T11:33:39.375Z,21.18
2023-05-05T11:36:09.024Z,21.35
2023-05-05T11:39:04.845Z,21.32
2023-05-05T11:41:32.650Z,21.09
2023-05-05T11:44:10.833Z,21.61
2023-05-05T11:47:02.956Z,22.15
2023-05-05T11:49:35.144Z,21.65
2023-05-05T11:52:15.440Z,22.17
2023-05-05T11:54:50.737Z,21.81
2023-05-05T11:57:25.511Z,21.36
2023-05-05T12:00:06.651Z,21.36
2023-05-05T12:02:35.701Z,21.21
2023-05-05T12:05:03.606Z,20.99
2023-05-05T12:07:33.598Z,21.67
2023-05-05T12:10:01.709Z,21.80
2023-05-05T12:12:40.240Z,22.74
2023-05-05T12:15:09.780Z,22.24
2023-05-05T12:17:46.544Z,22.53
2023-05-05T12:20:14.689Z,23.18
2023-05-05T12:22:42.064Z,24.26
2023-05-05T12:25:10.856Z,24.31
2023-05-05T12:27:39.129Z,24.91
2023-05-05T12:30:18.573Z,24.77
2023-05-05T12:32:46.417Z,23.75
2023-05-05T12:35:14.503Z,23.27
2023-05-05T12:37:43.602Z,23.28
2023-05-05T12:40:47.348Z,23.32
2023-05-05T12:43:34.904Z,23.79
2023-05-05T12:46:05.112Z,24.70
2023-05-05T12:48:33.016Z,25.14
2023-05-05T12:51:17.496Z,25.61
2023-05-05T12:53:49.961Z,25.27
2023-05-05T12:56:35.981Z,24.44
2023-05-05T12:59:08.485Z,24.11
2023-05-05T13:01:37.809Z,24.43
2023-05-05T13:04:07.290Z,24.67
2023-05-05T13:06:35.279Z,25.29
2023-05-05T13:09:02.673Z,25.24
2023-05-05T13:11:30.350Z,25.54
2023-05-05T13:13:57.471Z,25.72
2023-05-05T13:16:25.175Z,25.91
2023-05-05T13:18:53.429Z,26.75
2023-05-05T13:21:20.714Z,26.10
2023-05-05T13:23:47.885Z,26.21
2023-05-05T13:26:15.153Z,27.05
2023-05-05T13:28:42.321Z,27.20
2023-05-05T13:31:09.542Z,27.44
2023-05-05T13:33:37.277Z,27.22
2023-05-05T13:36:05.042Z,26.58
2023-05-05T13:38:34.967Z,25.99
2023-05-05T13:41:03.312Z,26.49
2023-05-05T13:43:30.443Z,26.89
2023-05-05T13:46:05.703Z,27.63
2023-05-05T13:48:41.726Z,27.03
2023-05-05T13:51:08.893Z,27.26
2023-05-05T13:53:36.438Z,27.46
2023-05-05T13:56:04.069Z,27.95
2023-05-05T13:58:31.451Z,28.93
2023-05-05T14:00:58.586Z,29.07
2023-05-05T14:03:26.366Z,29.45
2023-05-05T14:05:53.424Z,28.45
2023-05-05T14:08:20.910Z,28.37
2023-05-05T14:10:49.104Z,28.68
2023-05-05T14:13:17.870Z,28.44
2023-05-05T14:15:45.071Z,28.69
2023-05-05T14:18:12.995Z,28.28
2023-05-05T14:20:40.161Z,26.83
2023-05-05T14:23:07.304Z,27.25
2023-05-05T14:25:34.492Z,27.28
2023-05-05T14:28:01.592Z,27.42
2023-05-05T14:30:28.857Z,27.30
2023-05-05T14:32:56.624Z,27.09
2023-05-05T14:35:23.785Z,26.67
2023-05-05T14:37:51.247Z,25.93
2023-05-05T14:40:18.341Z,26.00
2023-05-05T14:42:45.667Z,26.16
2023-05-05T14:45:12.973Z,25.45
2023-05-05T14:47:40.102Z,26.71
2023-05-05T14:50:10.183Z,27.14
2023-05-05T14:52:40.532Z,29.01
2023-05-05T14:55:08.241Z,28.69
2023-05-05T14:57:35.593Z,27.97
2023-05-05T15:00:02.916Z,27.96
2023-05-05T15:02:30.212Z,28.55
2023-05-05T15:04:57.365Z,28.17
2023-05-05T15:07:28.669Z,27.02
2023-05-05T15:09:59.209Z,28.24
2023-05-05T15:12:26.395Z,29.29
2023-05-05T15:14:53.817Z,28.46
2023-05-05T15:17:20.912Z,28.86
2023-05-05T15:19:48.026Z,28.54
2023-05-05T15:22:15.172Z,30.75
2023-05-05T15:24:42.280Z,30.75
2023-05-05T15:27:09.487Z,30.94
2023-05-05T15:29:36.659Z,30.27
2023-05-05T15:32:03.936Z,31.11
2023-05-05T15:34:31.271Z,30.51
2023-05-05T15:36:58.424Z,30.43
2023-05-05T15:39:25.630Z,29.84
2023-05-05T15:41:52.759Z,29.36
2023-05-05T15:44:19.884Z,29.12
2023-05-05T15:46:49.724Z,28.16
2023-05-05T15:49:17.536Z,27.53
2023-05-05T15:51:44.701Z,28.35
2023-05-05T15:54:11.805Z,28.24
2023-05-05T15:56:38.860Z,28.22
2023-05-05T15:59:06.188Z,28.32
2023-05-05T16:01:33.931Z,28.57
2023-05-05T16:04:01.588Z,29.68
2023-05-05T16:06:28.756Z,30.27
2023-05-05T16:08:58.768Z,30.49
2023-05-05T16:11:26.908Z,29.22
2023-05-05T16:13:54.467Z,29.35
2023-05-05T16:16:22.073Z,29.46
2023-05-05T16:18:49.290Z,28.28
2023-05-05T16:21:16.475Z,28.17
2023-05-05T16:23:43.849Z,27.95
2023-05-05T16:26:11.518Z,27.58
2023-05-05T16:28:38.920Z,27.14
2023-05-05T16:31:06.549Z,27.32
2023-05-05T16:33:33.833Z,27.60
2023-05-05T16:36:01.271Z,27.14
2023-05-05T16:38:28.360Z,27.53
2023-05-05T16:40:56.263Z,28.46
2023-05-05T16:43:23.326Z,27.23
2023-05-05T16:45:51.422Z,26.72
2023-05-05T16:48:19.099Z,25.82
2023-05-05T16:50:47.215Z,25.80
2023-05-05T16:53:14.276Z,25.50
2023-05-05T16:55:41.793Z,25.24
2023-05-05T16:58:09.121Z,25.62
2023-05-05T17:00:36.681Z,25.02
2023-05-05T17:03:04.039Z,24.36
2023-05-05T17:05:31.923Z,23.47
2023-05-05T17:07:59.169Z,23.24
2023-05-05T17:10:26.888Z,22.96
2023-05-05T17:12:53.963Z,22.62
2023-05-05T17:15:22.316Z,22.28
2023-05-05T17:17:49.472Z,22.01
2023-05-05T17:20:16.950Z,22.03
2023-05-05T17:22:44.342Z,21.62
2023-05-05T17:25:11.908Z,21.44
2023-05-05T17:27:39.531Z,21.19
2023-05-05T17:30:08.246Z,21.17
2023-05-05T17:32:35.347Z,20.97
2023-05-05T17:35:03.616Z,20.90
2023-05-05T17:37:31.135Z,20.86
2023-05-05T17:39:58.646Z,20.86
2023-05-05T17:42:27.360Z,20.68
2023-05-05T17:44:54.427Z,20.68
2023-05-05T17:47:23.012Z,20.60
2023-05-05T17:49:51.662Z,20.50
2023-05-05T17:52:19.709Z,20.40
2023-05-05T17:54:47.122Z,20.39
2023-05-05T17:57:14.754Z,20.24
2023-05-05T17:59:41.801Z,20.16
2023-05-05T18:02:09.727Z,20.07
2023-05-05T18:04:37.394Z,20.03
2023-05-05T18:07:05.416Z,19.99
2023-05-05T18:09:32.800Z,20.01
2023-05-05T18:12:00.362Z,19.86
2023-05-05T18:14:27.431Z,19.86
2023-05-05T18:16:55.318Z,19.85
2023-05-05T18:19:24.129Z,19.96
2023-05-05T18:21:52.922Z,19.90
2023-05-05T18:24:20.842Z,19.67
2023-05-05T18:26:50.755Z,19.59
2023-05-05T18:29:19.050Z,19.49
2023-05-05T18:31:52.277Z,19.46
2023-05-05T18:34:20.954Z,19.40
2023-05-05T18:36:48.626Z,19.41
2023-05-05T18:39:16.375Z,19.27
2023-05-05T18:41:43.626Z,19.30
2023-05-05T18:44:11.616Z,19.24
2023-05-05T18:46:39.346Z,18.96
2023-05-05T18:49:07.033Z,18.92
2023-05-05T18:51:35.951Z,18.98
2023-05-05T18:54:03.937Z,18.93
2023-05-05T18:56:31.047Z,18.91
2023-05-05T18:58:58.501Z,18.75
2023-05-05T19:01:25.917Z,18.72
2023-05-05T19:03:53.388Z,18.78
2023-05-05T19:06:20.603Z,18.78
2023-05-05T19:08:49.166Z,18.78
2023-05-05T19:11:16.349Z,18.74
2023-05-05T19:13:43.747Z,18.75
2023-05-05T19:16:12.070Z,18.77
2023-05-05T19:18:40.176Z,18.75
2023-05-05T19:21:07.361Z,18.68
2023-05-05T19:23:36.656Z,18.59
2023-05-05T19:26:04.077Z,18.69
2023-05-05T19:28:32.312Z,18.72
2023-05-05T19:30:59.664Z,18.65
2023-05-05T19:33:27.275Z,18.53
2023-05-05T19:35:54.342Z,18.75
2023-05-05T19:38:21.481Z,18.58
2023-05-05T19:40:48.752Z,18.40
2023-05-05T19:43:16.089Z,18.22
2023-05-05T19:45:43.288Z,18.13
2023-05-05T19:48:10.496Z,18.01
2023-05-05T19:50:37.693Z,17.76
2023-05-05T19:53:05.067Z,17.76
2023-05-05T19:55:33.473Z,17.58
2023-05-05T19:58:00.579Z,17.62
2023-05-05T20:00:27.864Z,17.57
2023-05-05T20:02:55.164Z,17.68
2023-05-05T20:05:23.245Z,17.83
2023-05-05T20:07:51.117Z,18.02
2023-05-05T20:10:18.407Z,18.01
2023-05-05T20:12:49.364Z,17.91
2023-05-05T20:15:19.451Z,17.80
2023-05-05T20:17:47.777Z,17.66
2023-05-05T20:20:22.896Z,17.70
2023-05-05T20:22:50.066Z,17.72
2023-05-05T20:25:17.369Z,17.76
2023-05-05T20:27:45.772Z,17.82
2023-05-05T20:30:13.578Z,17.83
2023-05-05T20:32:41.897Z,17.98
2023-05-05T20:35:09.908Z,18.20
2023-05-05T20:37:37.076Z,18.33
2023-05-05T20:40:04.463Z,18.26
2023-05-05T20:42:31.735Z,18.29
2023-05-05T20:45:01.099Z,18.23
2023-05-05T20:47:28.313Z,18.22
2023-05-05T20:49:55.790Z,18.26
2023-05-05T20:52:22.907Z,18.26
2023-05-05T20:54:50.053Z,18.24
2023-05-05T20:57:17.589Z,17.92
2023-05-05T20:59:44.752Z,17.81
2023-05-05T21:02:12.005Z,17.50
2023-05-05T21:04:39.250Z,17.30
2023-05-05T21:07:06.909Z,17.26
2023-05-05T21:09:35.751Z,17.32
2023-05-05T21:12:05.446Z,17.36
2023-05-05T21:14:32.607Z,17.32
2023-05-05T21:16:59.768Z,17.19
2023-05-05T21:19:27.110Z,17.10
2023-05-05T21:21:54.241Z,17.07
2023-05-05T21:24:21.497Z,16.72
2023-05-05T21:26:48.614Z,16.70
2023-05-05T21:29:15.773Z,16.57
2023-05-05T21:31:43.002Z,16.25
2023-05-05T21:34:10.198Z,16.20
2023-05-05T21:36:38.740Z,16.21
2023-05-05T21:39:05.868Z,16.08
2023-05-05T21:41:33.094Z,16.20
2023-05-05T21:44:00.322Z,16.06
2023-05-05T21:46:27.729Z,15.85
2023-05-05T21:48:54.941Z,15.73
2023-05-05T21:51:23.769Z,15.79
2023-05-05T21:53:50.832Z,15.78
2023-05-05T21:56:18.041Z,15.81
2023-05-05T21:58:45.230Z,15.71
2023-05-05T22:01:12.465Z,15.71
2023-05-05T22:03:39.737Z,15.71
2023-05-05T22:06:07.046Z,15.59
2023-05-05T22:08:34.205Z,15.59
2023-05-05T22:11:02.032Z,15.58
2023-05-05T22:13:29.126Z,15.58
2023-05-05T22:15:56.339Z,15.45
2023-05-05T22:18:23.420Z,15.33
2023-05-05T22:20:51.592Z,15.34
2023-05-05T22:23:18.740Z,15.20
2023-05-05T22:25:46.879Z,15.07
2023-05-05T22:28:14.097Z,15.14
2023-05-05T22:30:41.807Z,15.17
2023-05-05T22:33:09.400Z,15.07
2023-05-05T22:35:38.535Z,14.92
2023-05-05T22:38:06.323Z,14.85
2023-05-05T22:40:34.294Z,14.81
2023-05-05T22:43:02.002Z,14.83
2023-05-05T22:45:29.390Z,14.80
2023-05-05T22:47:56.561Z,14.75
2023-05-05T22:50:24.216Z,14.63
2023-05-05T22:52:51.297Z,14.58
2023-05-05T22:55:18.872Z,14.52
2023-05-05T22:57:46.528Z,14.39
2023-05-05T23:00:14.877Z,14.45
2023-05-05T23:02:41.987Z,14.36
2023-05-05T23:05:10.866Z,14.39
2023-05-05T23:07:38.411Z,14.25
2023-05-05T23:10:06.318Z,14.10
2023-05-05T23:12:34.158Z,14.21
2023-05-05T23:15:01.678Z,13.98
2023-05-05T23:17:28.738Z,13.93
2023-05-05T23:19:56.455Z,13.86
2023-05-05T23:22:23.582Z,13.84
2023-05-05T23:24:50.726Z,14.00
2023-05-05T23:27:17.911Z,14.00
2023-05-05T23:29:44.992Z,14.06
2023-05-05T23:32:12.251Z,14.07
2023-05-05T23:34:39.339Z,13.99
2023-05-05T23:37:06.552Z,13.96
2023-05-05T23:39:35.006Z,13.94
2023-05-05T23:42:03.495Z,13.82
2023-05-05T23:44:30.643Z,13.81
2023-05-05T23:46:58.428Z,13.80
2023-05-05T23:49:26.839Z,13.82
2023-05-05T23:51:54.162Z,13.97
2023-05-05T23:54:21.472Z,14.04
2023-05-05T23:56:48.961Z,13.88
2023-05-05T23:59:16.086Z,13.82
